createdAt,value
2023-04-22T00:00:18.767Z,10.93
2023-04-22T00:02:45.887Z,11.45
2023-04-22T00:05:16.445Z,11.45
2023-04-22T00:07:46.039Z,10.20
2023-04-22T00:10:13.858Z,14.48
2023-04-22T00:12:40.985Z,10.88
2023-04-22T00:15:08.935Z,12.98
2023-04-22T00:17:36.584Z,13.18
2023-04-22T00:20:04.482Z,9.50
2023-04-22T00:22:31.356Z,12.38
2023-04-22T00:24:58.653Z,15.25
2023-04-22T00:27:25.888Z,11.27
2023-04-22T00:29:53.390Z,10.15
2023-04-22T00:32:22.856Z,10.25
2023-04-22T00:34:50.516Z,9.13
2023-04-22T00:37:17.718Z,8.90
2023-04-22T00:39:44.481Z,9.13
2023-04-22T00:42:12.722Z,10.43
2023-04-22T00:44:41.248Z,9.32
2023-04-22T00:47:09.668Z,11.45
2023-04-22T00:49:36.855Z,10.60
2023-04-22T00:52:04.309Z,8.13
2023-04-22T00:54:32.193Z,10.77
2023-04-22T00:56:59.772Z,7.60
2023-04-22T00:59:27.575Z,9.50
2023-04-22T01:01:54.963Z,7.63
2023-04-22T01:04:23.454Z,8.45
2023-04-22T01:06:53.712Z,11.05
2023-04-22T01:09:21.118Z,7.97
2023-04-22T01:11:48.602Z,9.82
2023-04-22T01:14:16.233Z,10.90
2023-04-22T01:16:44.594Z,12.95
2023-04-22T01:19:12.663Z,7.50
2023-04-22T01:21:40.909Z,9.48
2023-04-22T01:24:09.691Z,8.85
2023-04-22T01:26:37.502Z,11.35
2023-04-22T01:29:05.858Z,11.48
2023-04-22T01:31:34.171Z,10.13
2023-04-22T01:34:02.043Z,7.40
2023-04-22T01:36:29.554Z,9.73
2023-04-22T01:38:56.575Z,7.53
2023-04-22T01:41:26.965Z,10.10
2023-04-22T01:43:54.792Z,10.90
2023-04-22T01:46:21.885Z,9.20
2023-04-22T01:48:51.882Z,13.23
2023-04-22T01:51:22.631Z,7.95
2023-04-22T01:53:50.679Z,10.13
2023-04-22T01:56:18.619Z,9.45
2023-04-22T01:58:46.290Z,10.07
2023-04-22T02:01:14.653Z,7.05
2023-04-22T02:03:41.839Z,10.57
2023-04-22T02:06:09.281Z,7.95
2023-04-22T02:08:37.023Z,9.55
2023-04-22T02:11:04.887Z,9.95
2023-04-22T02:13:39.930Z,9.65
2023-04-22T02:16:07.750Z,7.93
2023-04-22T02:18:35.590Z,8.10
2023-04-22T02:21:03.274Z,10.45
2023-04-22T02:23:30.630Z,11.60
2023-04-22T02:25:57.855Z,7.25
2023-04-22T02:28:24.897Z,7.70
2023-04-22T02:30:52.444Z,7.68
2023-04-22T02:33:24.426Z,8.10
2023-04-22T02:35:54.305Z,10.57
2023-04-22T02:38:23.631Z,9.10
2023-04-22T02:40:51.888Z,7.95
2023-04-22T02:43:19.435Z,9.38
2023-04-22T02:45:48.058Z,8.55
2023-04-22T02:48:16.191Z,12.40
2023-04-22T02:50:43.946Z,12.23
2023-04-22T02:53:12.074Z,11.65
2023-04-22T02:55:42.533Z,9.50
2023-04-22T02:58:10.777Z,6.82
2023-04-22T03:00:38.974Z,12.18
2023-04-22T03:03:07.578Z,9.40
2023-04-22T03:05:35.431Z,8.07
2023-04-22T03:08:03.383Z,7.70
2023-04-22T03:10:30.797Z,8.05
2023-04-22T03:12:59.408Z,6.68
2023-04-22T03:15:27.738Z,8.95
2023-04-22T03:17:55.563Z,9.45
2023-04-22T03:20:24.047Z,8.90
2023-04-22T03:22:54.985Z,9.05
2023-04-22T03:25:23.133Z,8.75
2023-04-22T03:27:53.836Z,10.05
2023-04-22T03:30:22.302Z,9.80
2023-04-22T03:32:51.376Z,8.60
2023-04-22T03:35:23.068Z,9.70
2023-04-22T03:37:52.649Z,9.38
2023-04-22T03:40:25.683Z,7.88
2023-04-22T03:42:54.373Z,5.53
2023-04-22T03:45:23.694Z,7.15
2023-04-22T03:48:33.650Z,6.75
2023-04-22T03:51:03.023Z,7.40
2023-04-22T03:53:34.751Z,6.20
2023-04-22T03:56:02.100Z,8.15
2023-04-22T03:58:30.336Z,7.15
2023-04-22T04:01:00.753Z,7.03
2023-04-22T04:03:31.016Z,8.15
2023-04-22T04:06:02.973Z,5.60
2023-04-22T04:08:30.838Z,6.15
2023-04-22T04:10:59.589Z,7.63
2023-04-22T04:13:32.944Z,5.13
2023-04-22T04:16:16.495Z,5.47
2023-04-22T04:18:46.351Z,9.60
2023-04-22T04:21:14.621Z,10.95
2023-04-22T04:23:49.645Z,4.97
2023-04-22T04:26:20.843Z,7.30
2023-04-22T04:28:52.960Z,5.85
2023-04-22T04:31:23.382Z,5.15
2023-04-22T04:33:52.998Z,6.00
2023-04-22T04:36:21.197Z,4.50
2023-04-22T04:38:49.581Z,4.63
2023-04-22T04:41:16.970Z,4.65
2023-04-22T04:43:46.771Z,4.57
2023-04-22T04:46:24.292Z,5.82
2023-04-22T04:48:54.627Z,6.88
2023-04-22T04:51:22.465Z,5.32
2023-04-22T04:53:53.732Z,3.92
2023-04-22T04:56:22.385Z,5.18
2023-04-22T04:58:50.369Z,7.15
2023-04-22T05:01:24.874Z,4.30
2023-04-22T05:03:54.136Z,5.30
2023-04-22T05:06:23.967Z,4.57
2023-04-22T05:09:00.591Z,5.25
2023-04-22T05:11:28.915Z,6.93
2023-04-22T05:13:58.573Z,6.53
2023-04-22T05:16:39.040Z,5.07
2023-04-22T05:19:08.672Z,4.50
2023-04-22T05:21:36.236Z,4.32
2023-04-22T05:24:05.188Z,5.07
2023-04-22T05:26:33.325Z,4.97
2023-04-22T05:29:03.787Z,5.95
2023-04-22T05:31:32.366Z,6.18
2023-04-22T05:33:59.933Z,6.25
2023-04-22T05:36:31.141Z,5.13
2023-04-22T05:39:00.078Z,6.82
2023-04-22T05:41:28.247Z,5.82
2023-04-22T05:43:57.339Z,5.10
2023-04-22T05:46:26.717Z,7.18
2023-04-22T05:48:55.947Z,6.80
2023-04-22T05:51:43.150Z,4.72
2023-04-22T05:54:13.698Z,6.07
2023-04-22T05:56:41.427Z,5.60
2023-04-22T05:59:10.190Z,7.78
2023-04-22T06:01:38.211Z,5.22
2023-04-22T06:04:10.669Z,7.57
2023-04-22T06:06:38.527Z,7.40
2023-04-22T06:09:07.803Z,9.38
2023-04-22T06:11:35.369Z,5.45
2023-04-22T06:14:03.033Z,7.13
2023-04-22T06:16:31.017Z,5.75
2023-04-22T06:18:58.513Z,4.68
2023-04-22T06:21:27.301Z,4.20
2023-04-22T06:23:57.155Z,8.77
2023-04-22T06:26:24.369Z,7.13
2023-04-22T06:28:51.650Z,5.60
2023-04-22T06:31:21.186Z,5.45
2023-04-22T06:33:49.066Z,6.60
2023-04-22T06:36:16.972Z,5.63
2023-04-22T06:38:48.200Z,6.35
2023-04-22T06:41:40.943Z,6.38
2023-04-22T06:44:22.768Z,7.32
2023-04-22T06:47:08.950Z,5.90
2023-04-22T06:50:01.021Z,5.65
2023-04-22T06:52:37.324Z,6.57
2023-04-22T06:55:05.276Z,6.05
2023-04-22T06:57:32.780Z,6.35
2023-04-22T07:00:00.835Z,6.47
2023-04-22T07:02:30.818Z,6.55
2023-04-22T07:04:59.036Z,7.20
2023-04-22T07:07:26.653Z,6.20
2023-04-22T07:09:55.622Z,5.88
2023-04-22T07:12:27.468Z,6.53
2023-04-22T07:14:55.368Z,8.63
2023-04-22T07:17:23.046Z,7.35
2023-04-22T07:19:50.823Z,5.18
2023-04-22T07:22:18.300Z,7.97
2023-04-22T07:24:46.266Z,6.38
2023-04-22T07:27:13.355Z,7.32
2023-04-22T07:29:41.026Z,5.85
2023-04-22T07:32:09.650Z,5.97
2023-04-22T07:34:37.176Z,7.68
2023-04-22T07:37:05.313Z,7.45
2023-04-22T07:39:32.909Z,5.53
2023-04-22T07:42:03.448Z,6.00
2023-04-22T07:44:31.362Z,8.02
2023-04-22T07:47:01.563Z,6.80
2023-04-22T07:49:29.454Z,6.50
2023-04-22T07:51:57.518Z,7.10
2023-04-22T07:54:25.325Z,7.28
2023-04-22T07:56:53.201Z,6.03
2023-04-22T07:59:21.488Z,5.95
2023-04-22T08:01:49.217Z,5.75
2023-04-22T08:04:17.463Z,7.97
2023-04-22T08:06:46.140Z,7.40
2023-04-22T08:09:16.284Z,6.32
2023-04-22T08:11:44.513Z,8.85
2023-04-22T08:14:11.977Z,7.47
2023-04-22T08:16:40.691Z,9.60
2023-04-22T08:19:09.015Z,7.03
2023-04-22T08:21:37.686Z,6.78
2023-04-22T08:24:09.611Z,6.20
2023-04-22T08:26:38.603Z,7.43
2023-04-22T08:29:07.631Z,5.82
2023-04-22T08:31:35.360Z,6.10
2023-04-22T08:34:03.252Z,5.63
2023-04-22T08:36:32.240Z,6.50
2023-04-22T08:38:59.940Z,7.53
2023-04-22T08:41:27.292Z,5.32
2023-04-22T08:43:55.102Z,5.90
2023-04-22T08:46:25.627Z,4.90
2023-04-22T08:48:54.313Z,5.25
2023-04-22T08:51:23.283Z,4.53
2023-04-22T08:53:51.098Z,5.68
2023-04-22T08:56:19.330Z,4.85
2023-04-22T08:58:48.403Z,6.22
2023-04-22T09:01:19.094Z,5.70
2023-04-22T09:03:50.164Z,5.65
2023-04-22T09:06:24.641Z,6.25
2023-04-22T09:08:53.520Z,6.22
2023-04-22T09:11:21.197Z,6.20
2023-04-22T09:13:48.995Z,6.88
2023-04-22T09:16:18.121Z,4.53
2023-04-22T09:19:04.222Z,4.88
2023-04-22T09:21:34.494Z,4.45
2023-04-22T09:24:03.774Z,4.90
2023-04-22T09:26:31.973Z,4.90
2023-04-22T09:29:01.386Z,4.45
2023-04-22T09:31:29.348Z,5.25
2023-04-22T09:34:00.062Z,5.70
2023-04-22T09:36:29.618Z,3.97
2023-04-22T09:39:00.275Z,4.85
2023-04-22T09:41:31.867Z,5.47
2023-04-22T09:44:01.097Z,5.07
2023-04-22T09:46:30.636Z,4.75
2023-04-22T09:49:00.332Z,3.58
2023-04-22T09:51:29.940Z,3.95
2023-04-22T09:54:09.165Z,3.67
2023-04-22T09:56:42.309Z,4.57
2023-04-22T09:59:10.256Z,3.97
2023-04-22T10:01:41.245Z,2.75
2023-04-22T10:04:10.425Z,2.92
2023-04-22T10:06:39.289Z,3.60
2023-04-22T10:09:09.517Z,4.03
2023-04-22T10:11:38.102Z,5.15
2023-04-22T10:14:06.103Z,6.05
2023-04-22T10:16:36.111Z,6.55
2023-04-22T10:19:07.247Z,4.57
2023-04-22T10:21:35.275Z,4.65
2023-04-22T10:24:02.548Z,5.13
2023-04-22T10:26:43.205Z,3.90
2023-04-22T10:29:16.839Z,4.97
2023-04-22T10:31:55.186Z,4.90
2023-04-22T10:34:23.232Z,3.33
2023-04-22T10:37:08.610Z,3.92
2023-04-22T10:39:36.054Z,5.20
2023-04-22T10:42:03.484Z,4.78
2023-04-22T10:44:45.164Z,4.40
2023-04-22T10:47:12.294Z,4.95
2023-04-22T10:49:40.127Z,6.05
2023-04-22T10:52:10.030Z,4.75
2023-04-22T10:54:41.892Z,5.25
2023-04-22T10:57:19.718Z,4.72
2023-04-22T10:59:52.816Z,5.53
2023-04-22T11:02:22.498Z,3.85
2023-04-22T11:04:51.636Z,3.70
2023-04-22T11:07:20.574Z,4.63
2023-04-22T11:09:51.120Z,4.45
2023-04-22T11:12:39.818Z,4.90
2023-04-22T11:15:16.672Z,5.03
2023-04-22T11:17:46.473Z,3.90
2023-04-22T11:20:18.675Z,4.95
2023-04-22T11:22:48.618Z,4.32
2023-04-22T11:25:16.403Z,6.13
2023-04-22T11:27:44.320Z,5.63
2023-04-22T11:30:16.655Z,6.53
2023-04-22T11:32:49.341Z,4.95
2023-04-22T11:35:21.107Z,5.00
2023-04-22T11:37:50.070Z,3.92
2023-04-22T11:40:30.663Z,3.22
2023-04-22T11:43:01.455Z,4.60
2023-04-22T11:45:33.100Z,6.82
2023-04-22T11:48:03.362Z,5.03
2023-04-22T11:50:34.256Z,4.25
2023-04-22T11:53:04.952Z,3.15
2023-04-22T11:55:36.525Z,4.38
2023-04-22T11:58:25.770Z,6.18
2023-04-22T12:00:55.043Z,4.45
2023-04-22T12:03:33.226Z,4.65
2023-04-22T12:06:04.376Z,4.22
2023-04-22T12:08:32.895Z,4.93
2023-04-22T12:11:08.600Z,3.80
2023-04-22T12:13:38.952Z,3.60
2023-04-22T12:16:14.901Z,4.55
2023-04-22T12:18:51.237Z,3.70
2023-04-22T12:21:20.829Z,4.60
2023-04-22T12:23:49.918Z,3.85
2023-04-22T12:26:19.757Z,3.17
2023-04-22T12:28:48.219Z,3.33
2023-04-22T12:31:17.345Z,4.30
2023-04-22T12:33:46.842Z,3.85
2023-04-22T12:36:14.173Z,6.03
2023-04-22T12:38:42.272Z,4.28
2023-04-22T12:41:10.236Z,6.30
2023-04-22T12:43:38.056Z,3.40
2023-04-22T12:46:08.104Z,4.18
2023-04-22T12:48:39.092Z,5.43
2023-04-22T12:51:06.947Z,4.13
2023-04-22T12:53:34.798Z,3.20
2023-04-22T12:56:02.026Z,4.93
2023-04-22T12:58:29.680Z,3.42
2023-04-22T13:00:57.285Z,4.40
2023-04-22T13:03:24.920Z,4.55
2023-04-22T13:05:53.154Z,3.45
2023-04-22T13:08:20.461Z,3.35
2023-04-22T13:10:47.429Z,2.70
2023-04-22T13:13:18.979Z,3.10
2023-04-22T13:15:54.425Z,3.70
2023-04-22T13:18:24.011Z,4.32
2023-04-22T13:20:54.289Z,4.13
2023-04-22T13:23:26.302Z,3.85
2023-04-22T13:25:55.722Z,2.95
2023-04-22T13:28:24.314Z,2.67
2023-04-22T13:30:52.307Z,3.67
2023-04-22T13:33:23.274Z,3.80
2023-04-22T13:35:53.373Z,6.88
2023-04-22T13:38:21.590Z,3.63
2023-04-22T13:40:48.733Z,3.60
2023-04-22T13:43:16.657Z,3.03
2023-04-22T13:45:44.278Z,4.13
2023-04-22T13:48:11.845Z,3.47
2023-04-22T13:50:42.895Z,3.35
2023-04-22T13:53:12.386Z,3.38
2023-04-22T13:55:40.818Z,4.13
2023-04-22T13:58:09.001Z,2.13
2023-04-22T14:00:36.807Z,2.13
2023-04-22T14:03:05.959Z,1.50
2023-04-22T14:05:33.673Z,2.13
2023-04-22T14:08:01.807Z,3.88
2023-04-22T14:10:29.229Z,3.58
2023-04-22T14:12:56.798Z,2.67
2023-04-22T14:15:24.802Z,3.03
2023-04-22T14:17:52.143Z,5.38
2023-04-22T14:20:19.723Z,4.18
2023-04-22T14:22:47.832Z,1.58
2023-04-22T14:25:15.327Z,2.40
2023-04-22T14:27:43.311Z,2.78
2023-04-22T14:30:11.879Z,2.47
2023-04-22T14:32:39.940Z,1.20
2023-04-22T14:35:08.201Z,2.03
2023-04-22T14:37:36.588Z,3.63
2023-04-22T14:40:04.557Z,3.78
2023-04-22T14:42:32.229Z,4.60
2023-04-22T14:44:59.811Z,11.40
2023-04-22T14:47:27.406Z,6.13
2023-04-22T14:49:54.406Z,2.03
2023-04-22T14:52:21.658Z,1.30
2023-04-22T14:54:51.735Z,3.38
2023-04-22T14:57:20.050Z,3.47
2023-04-22T14:59:47.351Z,1.55
2023-04-22T15:02:16.311Z,2.15
2023-04-22T15:04:44.770Z,2.22
2023-04-22T15:07:12.382Z,3.75
2023-04-22T15:09:40.242Z,1.77
2023-04-22T15:12:08.542Z,1.60
2023-04-22T15:14:36.310Z,1.75
2023-04-22T15:17:04.506Z,1.60
2023-04-22T15:19:32.459Z,3.00
2023-04-22T15:22:00.042Z,1.50
2023-04-22T15:24:30.308Z,2.15
2023-04-22T15:26:58.377Z,3.05
2023-04-22T15:29:26.259Z,2.75
2023-04-22T15:31:54.607Z,2.50
2023-04-22T15:34:22.522Z,2.20
2023-04-22T15:36:50.099Z,1.17
2023-04-22T15:39:17.823Z,1.63
2023-04-22T15:41:44.732Z,1.83
2023-04-22T15:44:12.945Z,1.17
2023-04-22T15:46:39.845Z,4.07
2023-04-22T15:49:07.298Z,2.97
2023-04-22T15:51:34.226Z,3.15
2023-04-22T15:54:01.574Z,1.50
2023-04-22T15:56:29.897Z,2.15
2023-04-22T15:58:57.236Z,2.20
2023-04-22T16:01:24.279Z,2.08
2023-04-22T16:03:51.953Z,1.95
2023-04-22T16:06:20.269Z,2.67
2023-04-22T16:08:48.670Z,3.08
2023-04-22T16:11:16.294Z,1.98
2023-04-22T16:13:43.520Z,3.35
2023-04-22T16:16:11.463Z,2.05
2023-04-22T16:18:40.395Z,1.13
2023-04-22T16:21:10.604Z,2.83
2023-04-22T16:23:38.989Z,1.88
2023-04-22T16:26:06.601Z,1.23
2023-04-22T16:28:34.232Z,5.53
2023-04-22T16:31:02.232Z,5.15
2023-04-22T16:33:29.618Z,4.68
2023-04-22T16:35:57.685Z,2.53
2023-04-22T16:38:25.282Z,3.38
2023-04-22T16:40:54.499Z,4.82
2023-04-22T16:43:21.531Z,2.78
2023-04-22T16:45:48.974Z,6.93
2023-04-22T16:48:16.438Z,1.70
2023-04-22T16:50:43.535Z,4.28
2023-04-22T16:53:12.165Z,1.98
2023-04-22T16:55:39.144Z,2.70
2023-04-22T16:58:06.275Z,1.65
2023-04-22T17:00:33.409Z,3.78
2023-04-22T17:03:01.485Z,4.45
2023-04-22T17:05:28.602Z,3.75
2023-04-22T17:07:55.526Z,4.82
2023-04-22T17:10:22.886Z,4.50
2023-04-22T17:12:50.210Z,2.90
2023-04-22T17:15:17.582Z,4.18
2023-04-22T17:17:45.399Z,4.63
2023-04-22T17:20:13.007Z,4.82
2023-04-22T17:22:40.694Z,9.30
2023-04-22T17:25:08.860Z,6.57
2023-04-22T17:27:36.715Z,6.78
2023-04-22T17:30:04.416Z,7.22
2023-04-22T17:32:31.833Z,6.65
2023-04-22T17:34:59.101Z,8.90
2023-04-22T17:37:26.730Z,10.90
2023-04-22T17:39:53.909Z,10.80
2023-04-22T17:42:27.218Z,10.25
2023-04-22T17:44:59.398Z,11.55
2023-04-22T17:47:26.529Z,17.70
2023-04-22T17:49:53.425Z,11.80
2023-04-22T17:52:20.461Z,12.57
2023-04-22T17:54:47.710Z,14.18
2023-04-22T17:57:15.246Z,9.40
2023-04-22T17:59:43.317Z,6.60
2023-04-22T18:02:13.607Z,6.10
2023-04-22T18:04:41.534Z,7.68
2023-04-22T18:07:08.811Z,11.50
2023-04-22T18:09:35.588Z,11.07
2023-04-22T18:12:02.744Z,11.25
2023-04-22T18:14:29.706Z,9.07
2023-04-22T18:16:57.268Z,9.80
2023-04-22T18:19:24.544Z,9.90
2023-04-22T18:21:59.620Z,12.38
2023-04-22T18:24:28.484Z,10.57
2023-04-22T18:26:55.331Z,10.25
2023-04-22T18:29:22.424Z,7.80
2023-04-22T18:31:51.220Z,7.38
2023-04-22T18:34:18.982Z,7.13
2023-04-22T18:36:48.543Z,8.25
2023-04-22T18:39:16.884Z,10.02
2023-04-22T18:41:44.342Z,9.98
2023-04-22T18:44:11.357Z,10.02
2023-04-22T18:46:38.578Z,12.02
2023-04-22T18:49:05.737Z,11.73
2023-04-22T18:51:33.553Z,13.13
2023-04-22T18:54:01.023Z,10.02
2023-04-22T18:56:30.514Z,8.45
2023-04-22T18:58:57.890Z,6.22
2023-04-22T19:01:24.976Z,6.95
2023-04-22T19:03:52.674Z,7.00
2023-04-22T19:06:20.256Z,5.60
2023-04-22T19:08:50.658Z,7.60
2023-04-22T19:11:17.979Z,17.42
2023-04-22T19:13:45.485Z,14.70
2023-04-22T19:16:12.647Z,10.07
2023-04-22T19:18:40.903Z,9.77
2023-04-22T19:21:08.442Z,11.50
2023-04-22T19:23:36.268Z,16.05
2023-04-22T19:26:03.527Z,16.45
2023-04-22T19:28:31.247Z,13.07
2023-04-22T19:31:01.172Z,16.17
2023-04-22T19:33:28.928Z,8.63
2023-04-22T19:35:56.446Z,7.00
2023-04-22T19:38:24.555Z,9.80
2023-04-22T19:40:51.764Z,7.55
2023-04-22T19:43:19.795Z,5.25
2023-04-22T19:45:47.241Z,7.00
2023-04-22T19:48:14.923Z,5.50
2023-04-22T19:50:45.081Z,9.52
2023-04-22T19:53:13.760Z,5.15
2023-04-22T19:55:43.318Z,5.80
2023-04-22T19:58:11.087Z,5.65
2023-04-22T20:00:39.470Z,5.45
2023-04-22T20:03:07.657Z,4.68
2023-04-22T20:05:35.041Z,6.10
2023-04-22T20:08:03.231Z,3.92
2023-04-22T20:10:31.236Z,2.92
2023-04-22T20:13:00.057Z,5.85
2023-04-22T20:15:27.763Z,10.40
2023-04-22T20:17:56.227Z,16.73
2023-04-22T20:20:23.936Z,15.18
2023-04-22T20:22:53.180Z,10.82
2023-04-22T20:25:23.519Z,9.57
2023-04-22T20:27:51.910Z,10.82
2023-04-22T20:30:19.269Z,14.00
2023-04-22T20:33:17.259Z,9.35
2023-04-22T20:35:46.729Z,10.35
2023-04-22T20:38:15.284Z,9.90
2023-04-22T20:40:44.789Z,10.68
2023-04-22T20:43:13.140Z,11.90
2023-04-22T20:45:40.352Z,7.43
2023-04-22T20:48:08.237Z,10.18
2023-04-22T20:50:35.698Z,10.13
2023-04-22T20:53:04.267Z,10.10
2023-04-22T20:55:31.838Z,9.43
2023-04-22T20:57:58.999Z,26.38
2023-04-22T21:00:25.975Z,14.85
2023-04-22T21:02:54.239Z,24.73
2023-04-22T21:05:22.027Z,18.42
2023-04-22T21:07:55.591Z,18.48
2023-04-22T21:10:23.432Z,9.73
2023-04-22T21:12:50.965Z,7.35
2023-04-22T21:15:19.047Z,5.80
2023-04-22T21:17:52.208Z,4.97
2023-04-22T21:20:21.139Z,5.00
2023-04-22T21:22:49.049Z,5.25
2023-04-22T21:25:22.117Z,6.15
2023-04-22T21:27:50.299Z,7.72
2023-04-22T21:30:19.276Z,7.18
2023-04-22T21:32:46.356Z,6.40
2023-04-22T21:35:13.506Z,5.28
2023-04-22T21:37:40.872Z,6.93
2023-04-22T21:40:13.164Z,4.93
2023-04-22T21:42:40.300Z,5.85
2023-04-22T21:45:08.066Z,7.78
2023-04-22T21:47:35.599Z,8.43
2023-04-22T21:50:02.814Z,6.97
2023-04-22T21:52:30.084Z,5.90
2023-04-22T21:54:57.257Z,4.95
2023-04-22T21:57:24.667Z,7.78
2023-04-22T21:59:51.770Z,7.38
2023-04-22T22:02:19.354Z,6.32
2023-04-22T22:04:47.089Z,5.78
2023-04-22T22:07:14.845Z,5.88
2023-04-22T22:09:43.417Z,5.65
2023-04-22T22:12:12.223Z,13.45
2023-04-22T22:14:39.791Z,14.35
2023-04-22T22:17:08.574Z,17.13
2023-04-22T22:19:36.325Z,13.25
2023-04-22T22:22:03.577Z,8.70
2023-04-22T22:24:30.512Z,8.93
2023-04-22T22:26:58.137Z,9.80
2023-04-22T22:29:25.761Z,9.15
2023-04-22T22:31:52.846Z,9.55
2023-04-22T22:34:20.251Z,9.55
2023-04-22T22:36:47.315Z,13.88
2023-04-22T22:39:16.174Z,12.05
2023-04-22T22:41:44.252Z,9.32
2023-04-22T22:44:11.616Z,8.63
2023-04-22T22:46:40.537Z,8.10
2023-04-22T22:49:07.875Z,8.52
2023-04-22T22:51:37.885Z,10.82
2023-04-22T22:54:05.541Z,10.90
2023-04-22T22:56:32.377Z,12.43
2023-04-22T22:58:59.770Z,10.25
2023-04-22T23:01:27.168Z,10.95
2023-04-22T23:03:55.983Z,11.43
2023-04-22T23:06:23.169Z,12.13
2023-04-22T23:08:50.181Z,13.20
2023-04-22T23:11:17.235Z,8.88
2023-04-22T23:13:44.303Z,11.30
2023-04-22T23:16:11.660Z,11.77
2023-04-22T23:18:39.590Z,10.95
2023-04-22T23:21:07.271Z,9.65
2023-04-22T23:23:37.133Z,12.07
2023-04-22T23:26:04.631Z,11.80
2023-04-22T23:28:32.212Z,9.02
2023-04-22T23:31:01.384Z,9.07
2023-04-22T23:33:30.703Z,7.38
2023-04-22T23:35:59.167Z,10.50
2023-04-22T23:38:27.970Z,8.73
2023-04-22T23:40:55.624Z,7.93
2023-04-22T23:43:22.622Z,6.47
2023-04-22T23:45:49.532Z,8.68
2023-04-22T23:48:16.420Z,9.60
2023-04-22T23:50:43.798Z,11.02
2023-04-22T23:53:11.102Z,8.25
2023-04-22T23:55:38.588Z,10.20
2023-04-22T23:58:06.112Z,11.00
